Time;durP1;ratioP1;P1;durP2;ratioP2;P2;SDS_P1;SDS_P2;PMS_P1;PMS_P2;Temp;Humidity;BMP_temperature;BMP_pressure;BME280_temperature;BME280_humidity;BME280_pressure;Samples;Min_cycle;Max_cycle;Signal;HPM_P1;HPM_P2
2023/09/22 00:01:00;;;;;;;36.35;23.85;;;14.10;99.90;;;;;;4865426;28;20327;-45
2023/09/22 00:03:26;;;;;;;35.53;23.80;;;14.10;99.90;;;;;;4860153;28;20414;-45
2023/09/22 00:05:52;;;;;;;29.70;23.95;;;14.10;99.90;;;;;;4880891;28;20432;-44
2023/09/22 00:08:18;;;;;;;44.05;26.05;;;14.10;99.90;;;;;;4864648;28;20863;-44
2023/09/22 00:10:45;;;;;;;35.15;25.20;;;14.10;99.90;;;;;;4881716;28;20136;-46
2023/09/22 00:13:11;;;;;;;36.47;23.30;;;14.10;99.90;;;;;;4867611;28;20920;-45
2023/09/22 00:15:36;;;;;;;41.17;25.23;;;14.10;99.90;;;;;;4865102;28;20472;-44
2023/09/22 00:18:02;;;;;;;38.40;26.50;;;14.00;99.90;;;;;;4864453;28;20103;-45
2023/09/22 00:20:29;;;;;;;45.90;26.60;;;14.00;99.90;;;;;;4848287;28;20446;-44
2023/09/22 00:22:54;;;;;;;40.88;25.95;;;14.00;99.90;;;;;;4864598;28;20045;-44
2023/09/22 00:25:22;;;;;;;34.92;26.25;;;14.00;99.90;;;;;;4881984;28;20336;-44
2023/09/22 00:27:47;;;;;;;44.72;27.30;;;14.00;99.90;;;;;;4864294;28;20516;-44
2023/09/22 00:30:13;;;;;;;38.95;25.80;;;14.00;99.90;;;;;;4882430;28;20557;-45
2023/09/22 00:32:39;;;;;;;36.70;25.70;;;14.00;99.90;;;;;;4867227;28;20486;-45
2023/09/22 00:35:06;;;;;;;37.92;26.92;;;14.00;99.90;;;;;;4864050;28;20826;-45
2023/09/22 00:37:33;;;;;;;38.28;26.20;;;14.00;99.90;;;;;;4884247;28;20247;-46
2023/09/22 00:39:59;;;;;;;34.65;25.42;;;13.90;99.90;;;;;;4863718;28;20768;-45
2023/09/22 00:42:24;;;;;;;39.10;26.30;;;13.90;99.90;;;;;;4884744;28;20235;-47
2023/09/22 00:44:50;;;;;;;44.28;26.55;;;14.00;99.90;;;;;;4884224;28;20046;-46
2023/09/22 00:47:17;;;;;;;37.03;26.30;;;13.90;99.90;;;;;;4864314;28;20730;-44
2023/09/22 00:49:45;;;;;;;38.83;27.02;;;14.00;99.90;;;;;;4881464;28;20868;-45
2023/09/22 00:52:12;;;;;;;35.92;25.60;;;14.00;99.90;;;;;;4863942;28;20327;-45
2023/09/22 00:54:39;;;;;;;41.92;28.52;;;14.00;99.90;;;;;;4864014;28;20301;-44
2023/09/22 00:57:05;;;;;;;35.88;27.23;;;14.00;99.90;;;;;;4864958;28;20310;-45
2023/09/22 00:59:33;;;;;;;37.30;26.30;;;13.90;99.90;;;;;;4882574;28;20452;-45
2023/09/22 01:01:59;;;;;;;41.10;27.33;;;13.90;99.90;;;;;;4856382;28;20384;-45
2023/09/22 01:04:25;;;;;;;36.22;26.58;;;13.90;99.90;;;;;;4863693;28;20204;-47
2023/09/22 01:06:51;;;;;;;37.35;27.83;;;14.00;99.90;;;;;;4882408;28;20144;-44
2023/09/22 01:09:16;;;;;;;42.85;29.60;;;14.00;99.90;;;;;;4862627;28;20666;-44
2023/09/22 01:11:44;;;;;;;38.28;28.42;;;14.00;99.90;;;;;;4843668;28;20330;-44
2023/09/22 01:14:10;;;;;;;42.30;28.83;;;14.00;99.90;;;;;;4880638;28;20504;-45
2023/09/22 01:16:36;;;;;;;43.92;30.70;;;14.00;99.90;;;;;;4882049;28;20876;-45
2023/09/22 01:19:01;;;;;;;55.63;32.92;;;14.00;99.90;;;;;;4881001;28;20354;-45
2023/09/22 01:21:34;;;;;;;40.97;30.33;;;13.90;99.90;;;;;;4881106;28;20907;-44
2023/09/22 01:23:59;;;;;;;40.42;29.88;;;14.00;99.90;;;;;;4850666;28;20760;-46
2023/09/22 01:26:26;;;;;;;40.45;30.48;;;13.90;99.90;;;;;;4881086;28;20402;-44
2023/09/22 01:28:52;;;;;;;47.72;33.50;;;13.90;99.90;;;;;;4879850;28;20391;-46
2023/09/22 01:31:17;;;;;;;43.72;30.67;;;14.00;99.90;;;;;;4879995;28;20568;-44
2023/09/22 01:33:45;;;;;;;48.75;33.75;;;14.00;99.90;;;;;;4880497;28;20630;-45
2023/09/22 01:36:14;;;;;;;48.10;33.88;;;14.00;99.90;;;;;;4861951;28;20397;-45
2023/09/22 01:38:39;;;;;;;39.03;30.95;;;14.00;99.90;;;;;;4866559;28;20890;-45
2023/09/22 01:41:06;;;;;;;47.53;32.08;;;14.10;99.90;;;;;;4880113;28;20397;-45
2023/09/22 01:43:32;;;;;;;43.58;30.85;;;14.00;99.90;;;;;;4866420;28;20351;-45
2023/09/22 01:45:58;;;;;;;41.22;31.33;;;14.10;99.90;;;;;;4862413;28;20332;-45
2023/09/22 01:48:24;;;;;;;39.92;31.00;;;14.00;99.90;;;;;;4861526;28;20924;-45
2023/09/22 01:50:50;;;;;;;43.60;30.77;;;14.10;99.90;;;;;;4863890;28;20459;-44
2023/09/22 01:53:15;;;;;;;35.78;29.60;;;14.10;99.90;;;;;;4862324;28;20430;-44
2023/09/22 01:55:41;;;;;;;39.13;28.95;;;14.10;99.90;;;;;;4881151;28;20751;-44
2023/09/22 01:58:07;;;;;;;38.83;26.38;;;14.00;99.90;;;;;;4881560;28;20358;-45
2023/09/22 02:00:36;;;;;;;31.60;24.20;;;13.90;99.90;;;;;;4879296;28;20839;-45
2023/09/22 02:03:03;;;;;;;28.80;22.42;;;13.90;99.90;;;;;;4860895;28;20784;-44
2023/09/22 02:05:29;;;;;;;28.95;18.75;;;13.80;99.90;;;;;;4863124;28;20344;-45
2023/09/22 02:07:57;;;;;;;21.13;16.13;;;13.70;99.90;;;;;;4861478;28;20399;-44
2023/09/22 02:10:23;;;;;;;18.20;15.18;;;13.60;99.90;;;;;;4826233;28;1089933;-44
2023/09/22 02:12:50;;;;;;;17.48;14.48;;;13.50;99.90;;;;;;4862189;28;20335;-45
2023/09/22 02:15:16;;;;;;;18.15;13.55;;;13.50;99.90;;;;;;4880801;28;20308;-44
2023/09/22 02:17:43;;;;;;;16.27;13.02;;;13.40;99.90;;;;;;4845760;28;20895;-44
2023/09/22 02:20:22;;;;;;;19.38;13.25;;;13.40;99.90;;;;;;4862636;28;20125;-45
2023/09/22 02:22:48;;;;;;;18.15;11.82;;;13.30;99.90;;;;;;4879636;28;20318;-44
2023/09/22 02:25:15;;;;;;;12.73;10.57;;;13.20;99.90;;;;;;4879758;28;20363;-45
2023/09/22 02:27:44;;;;;;;17.33;10.70;;;13.20;99.90;;;;;;4861661;28;20422;-44
2023/09/22 02:30:10;;;;;;;18.17;10.88;;;13.10;99.90;;;;;;4861149;28;20838;-45
2023/09/22 02:32:38;;;;;;;12.70;10.05;;;13.10;99.90;;;;;;4848961;28;20467;-44
2023/09/22 02:35:04;;;;;;;16.75;10.43;;;13.00;99.90;;;;;;4879232;28;20695;-45
2023/09/22 02:37:30;;;;;;;11.93;8.07;;;13.00;99.90;;;;;;4861432;28;20515;-44
2023/09/22 02:39:55;;;;;;;13.57;8.27;;;13.00;99.90;;;;;;4862312;28;20344;-45
2023/09/22 02:42:21;;;;;;;8.45;6.72;;;12.90;99.90;;;;;;4847670;28;20448;-45
2023/09/22 02:44:47;;;;;;;9.65;6.93;;;12.90;99.90;;;;;;4880444;28;20339;-45
2023/09/22 02:47:13;;;;;;;8.75;6.40;;;12.80;99.90;;;;;;4846009;28;20300;-44
2023/09/22 02:49:38;;;;;;;8.85;5.65;;;12.80;99.90;;;;;;4878697;28;20042;-44
2023/09/22 02:52:04;;;;;;;8.15;5.95;;;12.80;99.90;;;;;;4861391;28;20324;-43
2023/09/22 02:54:30;;;;;;;8.80;5.40;;;12.70;99.90;;;;;;4861548;28;20402;-45
2023/09/22 02:56:55;;;;;;;6.95;5.47;;;12.70;99.90;;;;;;4862258;28;20299;-45
2023/09/22 02:59:22;;;;;;;6.97;5.53;;;12.70;99.90;;;;;;4861324;28;20314;-44
2023/09/22 03:01:49;;;;;;;7.70;5.70;;;12.60;99.90;;;;;;4855071;28;20885;-44
2023/09/22 03:04:15;;;;;;;8.18;5.35;;;12.60;99.90;;;;;;4877030;28;20111;-46
2023/09/22 03:06:40;;;;;;;8.18;5.72;;;12.60;99.90;;;;;;4845544;28;20730;-44
2023/09/22 03:09:06;;;;;;;7.63;5.35;;;12.60;99.90;;;;;;4878938;28;20821;-43
2023/09/22 03:11:38;;;;;;;7.50;5.60;;;12.70;99.90;;;;;;4870395;28;20947;-44
2023/09/22 03:14:04;;;;;;;10.98;6.47;;;12.60;99.90;;;;;;4854880;28;20895;-43
2023/09/22 03:16:30;;;;;;;10.55;7.00;;;12.70;99.90;;;;;;4863828;28;20418;-46
2023/09/22 03:18:56;;;;;;;10.07;7.20;;;12.70;99.90;;;;;;4879164;28;20511;-44
2023/09/22 03:21:23;;;;;;;10.30;6.93;;;12.60;99.90;;;;;;4862649;28;20517;-45
2023/09/22 03:23:53;;;;;;;13.30;8.23;;;12.60;99.90;;;;;;4862151;28;20467;-44
2023/09/22 03:26:20;;;;;;;9.05;7.18;;;12.60;99.90;;;;;;4880645;28;20804;-45
2023/09/22 03:28:46;;;;;;;13.20;8.23;;;12.60;99.90;;;;;;4880183;28;20491;-44
2023/09/22 03:31:12;;;;;;;12.32;7.88;;;12.60;99.90;;;;;;4879622;28;20352;-44
2023/09/22 03:33:41;;;;;;;10.50;8.43;;;12.60;99.90;;;;;;4879512;28;20457;-44
2023/09/22 03:36:12;;;;;;;12.00;7.60;;;12.60;99.90;;;;;;4863535;28;20917;-45
2023/09/22 03:38:39;;;;;;;12.05;8.93;;;12.60;99.90;;;;;;4850397;28;20385;-45
2023/09/22 03:41:05;;;;;;;18.63;9.77;;;12.50;99.90;;;;;;4860319;28;20398;-45
2023/09/22 03:43:31;;;;;;;17.75;10.85;;;12.50;99.90;;;;;;4852471;28;20492;-45
2023/09/22 03:45:56;;;;;;;16.48;11.82;;;12.50;99.90;;;;;;4878833;28;20046;-45
2023/09/22 03:48:25;;;;;;;28.00;14.93;;;12.50;99.90;;;;;;4860498;28;20461;-44
2023/09/22 03:50:50;;;;;;;21.48;13.05;;;12.50;99.90;;;;;;4847145;28;20950;-45
2023/09/22 03:53:16;;;;;;;26.58;14.73;;;12.60;99.90;;;;;;4865593;28;20277;-45
2023/09/22 03:55:44;;;;;;;29.58;15.77;;;12.60;99.90;;;;;;4863840;28;20345;-44
2023/09/22 03:58:10;;;;;;;32.10;16.83;;;12.70;99.90;;;;;;4883506;28;20320;-44
2023/09/22 04:00:36;;;;;;;36.30;18.48;;;12.80;99.90;;;;;;4881526;28;20336;-44
2023/09/22 04:03:02;;;;;;;31.35;18.30;;;12.90;99.90;;;;;;4873374;28;20332;-43
2023/09/22 04:05:27;;;;;;;36.38;20.50;;;12.90;99.90;;;;;;4863462;28;20414;-46
2023/09/22 04:07:57;;;;;;;40.13;21.75;;;13.00;99.90;;;;;;4884915;28;20451;-43
2023/09/22 04:10:25;;;;;;;45.20;24.08;;;13.00;99.90;;;;;;4848188;28;20840;-44
2023/09/22 04:12:51;;;;;;;49.40;25.80;;;13.00;99.90;;;;;;4868274;28;20056;-45
2023/09/22 04:15:17;;;;;;;44.15;27.88;;;13.10;99.90;;;;;;4865159;28;20347;-44
2023/09/22 04:17:43;;;;;;;49.50;28.38;;;13.10;99.90;;;;;;4860113;28;20522;-44
2023/09/22 04:20:11;;;;;;;49.03;27.70;;;13.00;99.90;;;;;;4865117;28;20057;-44
2023/09/22 04:22:37;;;;;;;49.22;28.00;;;13.00;99.90;;;;;;4882002;28;20347;-46
2023/09/22 04:25:10;;;;;;;47.30;26.40;;;13.00;99.90;;;;;;4863974;28;20049;-44
2023/09/22 04:27:42;;;;;;;48.88;25.92;;;12.90;99.90;;;;;;4863474;28;20541;-45
2023/09/22 04:30:11;;;;;;;42.70;24.48;;;12.80;99.90;;;;;;4863815;28;20607;-45
2023/09/22 04:32:37;;;;;;;49.40;27.00;;;12.80;99.90;;;;;;4867196;28;20414;-45
2023/09/22 04:35:07;;;;;;;49.05;27.00;;;12.80;99.90;;;;;;4847811;28;20133;-44
2023/09/22 04:37:32;;;;;;;46.47;27.15;;;12.70;99.90;;;;;;4866352;28;20176;-45
2023/09/22 04:39:58;;;;;;;51.83;28.48;;;12.70;99.90;;;;;;4881481;28;20430;-44
2023/09/22 04:42:24;;;;;;;51.17;28.55;;;12.60;99.90;;;;;;4868720;28;20761;-45
2023/09/22 04:44:50;;;;;;;54.63;28.98;;;12.60;99.90;;;;;;4865646;28;20245;-45
2023/09/22 04:47:16;;;;;;;54.67;30.23;;;12.60;99.90;;;;;;4883831;28;20343;-46
2023/09/22 04:49:42;;;;;;;50.95;30.23;;;12.60;99.90;;;;;;4881139;28;20382;-44
2023/09/22 04:52:08;;;;;;;51.78;29.88;;;12.50;99.90;;;;;;4881770;28;20339;-44
2023/09/22 04:54:34;;;;;;;54.63;30.55;;;12.60;99.90;;;;;;4880717;28;20928;-45
2023/09/22 04:56:59;;;;;;;56.42;31.45;;;12.60;99.90;;;;;;4866396;28;20309;-45
2023/09/22 04:59:25;;;;;;;55.65;30.52;;;12.50;99.90;;;;;;4881316;28;20535;-45
2023/09/22 05:01:51;;;;;;;58.58;30.45;;;12.60;99.90;;;;;;4844168;28;20092;-44
2023/09/22 05:04:16;;;;;;;61.45;31.52;;;12.50;99.90;;;;;;4854069;28;20529;-48
2023/09/22 05:06:45;;;;;;;69.30;33.38;;;12.50;99.90;;;;;;4846471;28;20446;-44
2023/09/22 05:09:11;;;;;;;64.82;32.15;;;12.50;99.90;;;;;;4861914;28;20524;-44
2023/09/22 05:11:37;;;;;;;58.25;31.20;;;12.50;99.90;;;;;;4881180;28;20434;-45
2023/09/22 05:14:05;;;;;;;57.67;31.95;;;12.50;99.90;;;;;;4862915;28;20081;-46
2023/09/22 05:16:31;;;;;;;64.28;34.20;;;12.50;99.90;;;;;;4881566;28;20378;-48
2023/09/22 05:18:57;;;;;;;55.28;31.40;;;12.50;99.90;;;;;;4862877;28;20501;-44
2023/09/22 05:21:22;;;;;;;60.55;33.05;;;12.50;99.90;;;;;;4862181;28;20909;-44
2023/09/22 05:23:48;;;;;;;62.45;32.72;;;12.40;99.90;;;;;;4880518;28;20313;-45
2023/09/22 05:26:14;;;;;;;59.38;34.22;;;12.50;99.90;;;;;;4881491;28;20479;-46
2023/09/22 05:28:39;;;;;;;60.58;34.47;;;12.50;99.90;;;;;;4862387;28;20510;-44
2023/09/22 05:31:05;;;;;;;64.53;33.45;;;12.50;99.90;;;;;;4862405;28;20562;-45
2023/09/22 05:33:35;;;;;;;62.25;33.10;;;12.50;99.90;;;;;;4880459;28;20390;-44
2023/09/22 05:36:02;;;;;;;61.72;34.63;;;12.50;99.90;;;;;;4847043;28;20452;-45
2023/09/22 05:38:27;;;;;;;68.07;34.17;;;12.50;99.90;;;;;;4883628;28;20056;-44
2023/09/22 05:40:53;;;;;;;63.47;34.25;;;12.50;99.90;;;;;;4862214;28;20340;-46
2023/09/22 05:43:22;;;;;;;62.45;33.55;;;12.50;99.90;;;;;;4867553;28;20536;-46
2023/09/22 05:45:55;;;;;;;61.45;34.00;;;12.50;99.90;;;;;;4862302;28;20511;-45
2023/09/22 05:48:21;;;;;;;63.90;35.30;;;12.50;99.90;;;;;;4869121;28;20448;-45
2023/09/22 05:50:59;;;;;;;65.50;35.08;;;12.60;99.90;;;;;;4862112;28;20413;-45
2023/09/22 05:53:25;;;;;;;62.63;33.45;;;12.50;99.90;;;;;;4880192;28;20378;-45
2023/09/22 05:56:11;;;;;;;60.80;36.05;;;12.50;99.90;;;;;;4862315;28;20042;-44
2023/09/22 05:58:38;;;;;;;72.25;35.88;;;12.50;99.90;;;;;;4845441;28;20459;-45
2023/09/22 06:01:11;;;;;;;59.72;35.03;;;12.50;99.90;;;;;;4879340;28;20416;-45
2023/09/22 06:03:38;;;;;;;64.90;34.63;;;12.50;99.90;;;;;;4846442;28;20521;-47
2023/09/22 06:06:08;;;;;;;66.38;33.65;;;12.50;99.90;;;;;;4846414;28;20330;-45
2023/09/22 06:08:38;;;;;;;62.78;35.08;;;12.50;99.90;;;;;;4864239;28;20644;-44
2023/09/22 06:11:07;;;;;;;68.28;35.63;;;12.60;99.90;;;;;;4851457;28;20069;-44
2023/09/22 06:13:33;;;;;;;58.63;34.47;;;12.60;99.90;;;;;;4846321;28;20072;-44
2023/09/22 06:16:00;;;;;;;64.28;33.97;;;12.60;99.90;;;;;;4866240;28;20342;-45
2023/09/22 06:18:26;;;;;;;66.28;34.92;;;12.70;99.90;;;;;;4861776;28;20398;-45
2023/09/22 06:20:58;;;;;;;53.80;32.05;;;12.80;99.90;;;;;;4861641;28;20357;-45
2023/09/22 06:23:25;;;;;;;53.00;30.95;;;12.80;99.90;;;;;;4879652;28;20438;-46
2023/09/22 06:25:53;;;;;;;57.10;31.52;;;12.80;99.90;;;;;;4880684;28;20547;-45
2023/09/22 06:28:18;;;;;;;55.60;30.98;;;12.90;99.90;;;;;;4865596;28;20425;-47
2023/09/22 06:30:46;;;;;;;53.45;31.23;;;12.90;99.90;;;;;;4861892;28;20339;-44
2023/09/22 06:33:14;;;;;;;58.17;31.60;;;12.90;99.90;;;;;;4861321;28;20785;-46
2023/09/22 06:35:39;;;;;;;52.60;30.75;;;13.00;99.90;;;;;;4849194;28;20375;-45
2023/09/22 06:38:06;;;;;;;50.45;29.52;;;13.00;99.90;;;;;;4861275;28;20637;-45
2023/09/22 06:40:36;;;;;;;43.60;28.77;;;13.10;99.90;;;;;;4879750;28;20352;-45
2023/09/22 06:43:01;;;;;;;44.42;28.10;;;13.10;99.90;;;;;;4864533;28;20378;-47
2023/09/22 06:45:27;;;;;;;46.35;27.77;;;13.20;99.90;;;;;;4880516;28;20289;-46
2023/09/22 06:47:52;;;;;;;47.58;29.13;;;13.30;99.90;;;;;;4862219;28;20295;-45
2023/09/22 06:50:19;;;;;;;46.80;28.30;;;13.40;99.90;;;;;;4882809;28;20515;-45
2023/09/22 06:52:45;;;;;;;40.80;27.02;;;13.40;99.90;;;;;;4879623;28;20433;-46
2023/09/22 06:55:13;;;;;;;36.40;25.67;;;13.40;99.90;;;;;;4849395;28;20227;-46
2023/09/22 06:57:41;;;;;;;41.05;26.77;;;13.30;99.90;;;;;;4860170;28;20895;-45
2023/09/22 07:00:16;;;;;;;41.22;26.30;;;13.30;99.90;;;;;;4897916;28;20310;-44
2023/09/22 07:02:48;;;;;;;38.45;26.17;;;13.30;99.90;;;;;;4875426;28;20327;-45
2023/09/22 07:05:15;;;;;;;34.05;25.08;;;13.30;99.90;;;;;;4878535;28;20107;-45
2023/09/22 07:07:41;;;;;;;35.90;24.50;;;13.30;99.90;;;;;;4893615;28;20392;-45
2023/09/22 07:10:10;;;;;;;35.40;24.45;;;13.30;99.90;;;;;;4898323;28;20942;-44
2023/09/22 07:12:37;;;;;;;32.38;22.58;;;13.30;99.90;;;;;;4891103;28;20959;-44
2023/09/22 07:15:03;;;;;;;36.88;24.98;;;13.30;99.90;;;;;;4878486;28;20409;-45
2023/09/22 07:17:29;;;;;;;37.78;24.67;;;13.30;99.90;;;;;;4891137;28;20897;-45
2023/09/22 07:19:54;;;;;;;36.25;23.40;;;13.40;99.90;;;;;;4891368;28;20414;-45
2023/09/22 07:22:20;;;;;;;28.80;22.38;;;13.40;99.90;;;;;;4876876;28;20417;-45
2023/09/22 07:24:46;;;;;;;40.08;24.42;;;13.50;99.90;;;;;;4878656;28;20354;-44
2023/09/22 07:27:12;;;;;;;34.50;25.40;;;13.50;99.90;;;;;;4895982;28;20710;-45
2023/09/22 07:29:37;;;;;;;28.50;21.98;;;13.60;99.90;;;;;;4895713;28;20148;-44
2023/09/22 07:32:03;;;;;;;28.67;21.60;;;13.60;99.90;;;;;;4892768;28;20554;-45
2023/09/22 07:34:29;;;;;;;31.67;23.30;;;13.60;99.90;;;;;;4848744;28;20461;-45
2023/09/22 07:36:55;;;;;;;34.20;22.35;;;13.60;99.90;;;;;;4883177;28;20335;-45
2023/09/22 07:39:21;;;;;;;28.55;21.73;;;13.70;99.90;;;;;;4850398;28;20717;-45
2023/09/22 07:41:46;;;;;;;27.08;21.88;;;13.80;99.90;;;;;;4864711;28;20406;-45
2023/09/22 07:44:12;;;;;;;28.80;20.98;;;13.70;99.90;;;;;;4887894;28;20346;-45
2023/09/22 07:46:41;;;;;;;29.13;20.92;;;13.70;99.90;;;;;;4864737;28;20073;-45
2023/09/22 07:49:06;;;;;;;26.40;21.17;;;13.70;99.90;;;;;;4867475;28;20346;-46
2023/09/22 07:51:33;;;;;;;27.63;20.75;;;13.70;99.90;;;;;;4882070;28;20119;-45
2023/09/22 07:53:59;;;;;;;24.58;19.52;;;13.70;99.90;;;;;;4866890;28;20465;-44
2023/09/22 07:56:25;;;;;;;24.20;19.50;;;13.70;99.90;;;;;;4882946;28;20292;-44
2023/09/22 07:58:50;;;;;;;26.13;21.48;;;13.70;99.90;;;;;;4881289;28;20998;-45
2023/09/22 08:01:16;;;;;;;26.70;20.17;;;13.70;99.90;;;;;;4862626;28;20410;-45
2023/09/22 08:03:45;;;;;;;22.85;19.92;;;13.70;99.90;;;;;;4873376;28;20400;-45
2023/09/22 08:06:11;;;;;;;28.30;20.67;;;13.70;99.90;;;;;;4885402;28;20845;-45
2023/09/22 08:08:38;;;;;;;23.58;19.80;;;13.80;99.90;;;;;;4881890;28;20287;-44
2023/09/22 08:11:04;;;;;;;25.20;20.48;;;13.90;99.90;;;;;;4863754;28;20351;-45
2023/09/22 08:13:33;;;;;;;25.05;20.77;;;13.90;99.90;;;;;;4864638;28;20499;-46
2023/09/22 08:15:59;;;;;;;24.08;20.60;;;14.00;99.90;;;;;;4882141;28;20453;-45
2023/09/22 08:18:25;;;;;;;23.85;20.40;;;14.10;99.90;;;;;;4882270;28;20496;-44
2023/09/22 08:20:51;;;;;;;25.15;20.02;;;14.20;99.90;;;;;;4868165;28;20722;-45
2023/09/22 08:23:17;;;;;;;21.35;19.05;;;14.30;99.90;;;;;;4863674;28;20475;-45
2023/09/22 08:25:46;;;;;;;22.67;19.50;;;14.50;99.90;;;;;;4882487;28;20810;-44
2023/09/22 08:28:15;;;;;;;21.70;18.48;;;14.70;99.90;;;;;;4863939;28;20332;-46
2023/09/22 08:30:41;;;;;;;23.40;19.20;;;14.90;99.90;;;;;;4879623;28;20947;-45
2023/09/22 08:33:07;;;;;;;21.48;18.88;;;15.00;99.90;;;;;;4880415;28;20473;-45
2023/09/22 08:35:33;;;;;;;19.23;17.20;;;15.20;99.90;;;;;;4880010;28;20483;-46
2023/09/22 08:38:00;;;;;;;17.95;16.25;;;15.30;99.90;;;;;;4860534;28;20344;-44
2023/09/22 08:40:26;;;;;;;16.10;14.60;;;15.40;99.90;;;;;;4849709;28;20574;-45
2023/09/22 08:42:55;;;;;;;17.60;15.77;;;15.40;99.90;;;;;;4859860;28;20402;-45
2023/09/22 08:45:21;;;;;;;18.20;14.52;;;15.40;99.90;;;;;;4863649;28;20214;-45
2023/09/22 08:47:49;;;;;;;16.80;15.02;;;15.40;99.90;;;;;;4880962;28;21007;-46
2023/09/22 08:50:19;;;;;;;16.63;14.48;;;15.30;99.90;;;;;;4880961;28;20348;-45
2023/09/22 08:52:49;;;;;;;14.75;13.25;;;15.30;99.90;;;;;;4881383;28;20311;-45
2023/09/22 08:55:15;;;;;;;15.70;14.18;;;15.40;99.90;;;;;;4861326;28;20991;-46
2023/09/22 08:57:44;;;;;;;13.18;11.57;;;15.30;99.90;;;;;;4846917;28;20309;-45
2023/09/22 09:00:21;;;;;;;9.93;8.93;;;15.20;99.90;;;;;;4880574;28;20560;-46
2023/09/22 09:02:48;;;;;;;10.73;7.75;;;15.10;99.90;;;;;;4862927;28;20343;-45
2023/09/22 09:05:22;;;;;;;7.65;6.85;;;14.90;99.90;;;;;;4881594;28;20361;-45
2023/09/22 09:07:49;;;;;;;6.90;5.88;;;14.70;99.90;;;;;;4863503;28;20534;-44
2023/09/22 09:10:48;;;;;;;5.85;4.82;;;14.60;99.90;;;;;;4880291;28;20454;-44
2023/09/22 09:13:17;;;;;;;5.60;4.65;;;14.50;99.90;;;;;;4872647;28;20104;-45
2023/09/22 09:15:50;;;;;;;7.55;4.63;;;14.50;99.90;;;;;;4881499;28;20410;-45
2023/09/22 09:18:21;;;;;;;5.60;4.70;;;14.60;99.90;;;;;;4877488;28;20200;-45
2023/09/22 09:21:15;;;;;;;4.53;4.07;;;14.70;99.90;;;;;;4867207;28;20372;-44
2023/09/22 09:23:56;;;;;;;4.90;4.38;;;14.70;99.90;;;;;;4863564;28;20300;-45
2023/09/22 09:26:32;;;;;;;7.10;4.38;;;14.80;99.90;;;;;;4882217;28;20328;-44
2023/09/22 09:29:02;;;;;;;5.00;3.72;;;14.90;99.90;;;;;;4880235;28;20465;-45
2023/09/22 09:31:51;;;;;;;4.55;3.75;;;14.90;99.90;;;;;;4880716;28;20347;-45
2023/09/22 09:34:16;;;;;;;6.28;4.07;;;14.90;99.90;;;;;;4861333;28;20458;-46
2023/09/22 09:36:42;;;;;;;4.53;4.10;;;14.80;99.90;;;;;;4863172;28;20438;-48
2023/09/22 09:39:10;;;;;;;6.88;4.10;;;14.80;99.90;;;;;;4880871;28;20046;-46
2023/09/22 09:41:37;;;;;;;6.32;3.50;;;14.90;99.90;;;;;;4863314;28;20453;-46
2023/09/22 09:44:04;;;;;;;5.38;3.60;;;14.90;99.90;;;;;;4884771;28;20336;-45
2023/09/22 09:46:32;;;;;;;4.93;3.47;;;14.90;99.90;;;;;;4880426;28;20359;-46
2023/09/22 09:48:58;;;;;;;4.05;3.20;;;14.90;99.90;;;;;;4880175;28;20332;-45
2023/09/22 09:51:27;;;;;;;4.97;3.13;;;14.80;99.90;;;;;;4881098;28;20773;-46
2023/09/22 09:53:57;;;;;;;6.63;3.55;;;14.80;99.90;;;;;;4861617;28;20875;-46
2023/09/22 09:56:26;;;;;;;4.72;3.25;;;14.90;99.90;;;;;;4880989;28;20379;-45
2023/09/22 09:58:52;;;;;;;7.13;3.55;;;14.90;99.90;;;;;;4907923;28;20218;-44
2023/09/22 10:01:19;;;;;;;4.50;3.20;;;15.00;99.90;;;;;;4896606;28;20806;-45
2023/09/22 10:03:45;;;;;;;4.43;3.10;;;15.20;99.90;;;;;;4856516;28;20521;-46
2023/09/22 10:06:13;;;;;;;5.78;2.85;;;15.40;99.90;;;;;;4862418;28;21014;-45
2023/09/22 10:08:39;;;;;;;3.90;3.15;;;15.50;99.90;;;;;;4863931;28;20821;-44
2023/09/22 10:11:08;;;;;;;6.30;3.30;;;15.50;99.90;;;;;;4881751;28;20347;-44
2023/09/22 10:13:36;;;;;;;6.05;3.00;;;15.60;99.90;;;;;;4846220;28;20675;-44
2023/09/22 10:16:08;;;;;;;3.75;2.78;;;15.70;99.90;;;;;;4846140;28;20303;-45
2023/09/22 10:18:45;;;;;;;3.33;2.22;;;15.60;99.90;;;;;;4861302;28;20386;-45
2023/09/22 10:21:30;;;;;;;4.68;2.80;;;15.60;99.90;;;;;;4856897;28;20208;-46
2023/09/22 10:24:15;;;;;;;4.13;2.97;;;15.50;99.90;;;;;;4861949;28;20065;-45
2023/09/22 10:26:56;;;;;;;3.40;2.47;;;15.50;99.90;;;;;;4879624;28;20474;-44
2023/09/22 10:29:34;;;;;;;2.72;2.53;;;15.50;99.90;;;;;;4861827;28;20718;-44
2023/09/22 10:32:23;;;;;;;4.18;2.38;;;15.60;99.90;;;;;;4850328;28;20344;-47
2023/09/22 10:34:49;;;;;;;3.08;2.78;;;15.70;99.90;;;;;;4862580;28;20906;-43
2023/09/22 10:37:16;;;;;;;3.20;2.40;;;15.70;99.90;;;;;;4879629;28;20993;-45
2023/09/22 10:40:15;;;;;;;3.95;2.88;;;15.70;99.90;;;;;;4862391;28;20316;-48
2023/09/22 10:42:52;;;;;;;3.25;2.45;;;15.80;99.90;;;;;;4879819;28;20356;-45
2023/09/22 10:45:27;;;;;;;5.38;2.22;;;15.80;99.90;;;;;;4852901;28;21044;-43
2023/09/22 10:47:53;;;;;;;3.60;2.67;;;16.00;99.90;;;;;;4879894;28;20962;-44
2023/09/22 10:50:30;;;;;;;3.15;2.60;;;16.10;99.90;;;;;;4888205;28;20354;-44
2023/09/22 10:53:06;;;;;;;3.33;2.80;;;16.20;99.90;;;;;;4864748;28;20046;-45
2023/09/22 10:55:37;;;;;;;3.13;2.80;;;16.30;99.90;;;;;;4879756;28;20132;-45
2023/09/22 10:58:05;;;;;;;5.00;3.00;;;16.50;99.90;;;;;;4877785;28;20470;-44
2023/09/22 11:00:32;;;;;;;3.80;3.03;;;16.50;99.90;;;;;;4881517;28;20336;-43
2023/09/22 11:03:14;;;;;;;2.97;2.60;;;16.60;99.90;;;;;;4853746;28;20469;-44
2023/09/22 11:05:42;;;;;;;3.30;2.70;;;16.60;99.90;;;;;;4862352;28;20418;-45
2023/09/22 11:08:17;;;;;;;3.42;2.08;;;16.70;99.90;;;;;;4866925;28;20045;-45
2023/09/22 11:10:47;;;;;;;2.95;2.08;;;16.80;99.90;;;;;;4849504;28;20838;-46
2023/09/22 11:13:16;;;;;;;4.47;2.15;;;16.90;99.90;;;;;;4883519;28;20603;-45
2023/09/22 11:15:47;;;;;;;3.33;2.50;;;16.90;99.90;;;;;;4865365;28;20514;-44
2023/09/22 11:18:23;;;;;;;5.38;2.28;;;16.80;99.90;;;;;;4865686;28;20453;-45
2023/09/22 11:20:54;;;;;;;4.50;2.88;;;16.90;99.90;;;;;;4852434;28;20309;-43
2023/09/22 11:23:20;;;;;;;6.10;2.47;;;16.90;99.90;;;;;;4866525;28;20048;-46
2023/09/22 11:25:57;;;;;;;4.20;2.58;;;16.90;99.90;;;;;;4885897;28;20061;-46
2023/09/22 11:28:23;;;;;;;3.13;2.42;;;16.80;99.90;;;;;;4882465;28;20501;-44
2023/09/22 11:30:50;;;;;;;4.10;2.50;;;16.80;99.90;;;;;;4882632;28;20517;-45
2023/09/22 11:33:16;;;;;;;5.95;2.40;;;16.90;99.90;;;;;;4882391;28;20956;-44
2023/09/22 11:35:42;;;;;;;4.50;2.50;;;16.80;99.90;;;;;;4864868;28;20307;-47
2023/09/22 11:38:31;;;;;;;6.60;2.75;;;17.00;99.90;;;;;;4848000;28;20069;-44
2023/09/22 11:41:16;;;;;;;4.18;2.63;;;17.00;99.90;;;;;;4864214;28;20366;-45
2023/09/22 11:43:46;;;;;;;3.95;2.10;;;17.10;99.90;;;;;;4861254;28;20477;-44
2023/09/22 11:46:14;;;;;;;4.55;2.22;;;17.40;99.90;;;;;;4881871;28;20391;-45
2023/09/22 11:49:02;;;;;;;2.83;2.20;;;17.50;99.90;;;;;;4881415;28;20479;-44
2023/09/22 11:51:51;;;;;;;5.60;2.67;;;17.30;99.90;;;;;;4847255;28;20418;-45
2023/09/22 11:54:24;;;;;;;3.95;1.92;;;17.30;99.90;;;;;;4850067;28;20377;-44
2023/09/22 11:56:57;;;;;;;3.15;1.80;;;17.40;99.90;;;;;;4881411;28;20118;-44
2023/09/22 11:59:26;;;;;;;6.68;2.40;;;17.40;99.90;;;;;;4863848;28;20376;-46
2023/09/22 12:01:51;;;;;;;4.38;2.33;;;17.30;99.90;;;;;;4876208;28;20554;-44
2023/09/22 12:04:19;;;;;;;2.92;1.52;;;17.20;99.90;;;;;;4873005;28;20436;-47
2023/09/22 12:06:45;;;;;;;4.68;1.92;;;17.20;99.90;;;;;;4849870;28;20480;-44
2023/09/22 12:09:12;;;;;;;2.63;1.60;;;17.20;99.90;;;;;;4863735;28;20344;-45
2023/09/22 12:11:39;;;;;;;3.67;1.95;;;17.30;99.90;;;;;;4863484;28;20056;-44
2023/09/22 12:14:05;;;;;;;6.13;2.40;;;17.40;99.90;;;;;;4864078;28;20468;-44
2023/09/22 12:16:32;;;;;;;3.05;1.85;;;17.30;99.90;;;;;;4882431;28;20580;-45
2023/09/22 12:18:58;;;;;;;3.92;1.67;;;17.60;99.90;;;;;;4863275;28;20447;-45
2023/09/22 12:21:27;;;;;;;3.05;1.67;;;17.70;99.90;;;;;;4866576;28;20410;-47
2023/09/22 12:23:53;;;;;;;5.32;1.85;;;17.60;99.90;;;;;;4881729;28;20473;-44
2023/09/22 12:26:18;;;;;;;2.95;1.90;;;17.60;99.90;;;;;;4864354;28;20447;-46
2023/09/22 12:28:44;;;;;;;3.28;2.00;;;17.40;99.90;;;;;;4863144;28;20475;-44
2023/09/22 12:31:10;;;;;;;4.72;2.17;;;17.30;99.90;;;;;;4881417;28;20477;-44
2023/09/22 12:33:37;;;;;;;2.55;1.88;;;17.20;99.90;;;;;;4863732;28;20847;-45
2023/09/22 12:36:03;;;;;;;4.90;2.08;;;17.20;99.90;;;;;;4850598;28;20390;-45
2023/09/22 12:38:28;;;;;;;5.00;1.85;;;17.20;99.90;;;;;;4850345;28;20611;-44